Time;durP1;ratioP1;P1;durP2;ratioP2;P2;SDS_P1;SDS_P2;PMS_P1;PMS_P2;Temp;Humidity;BMP_temperature;BMP_pressure;BME280_temperature;BME280_humidity;BME280_pressure;Samples;Min_cycle;Max_cycle;Signal;HPM_P1;HPM_P2
2023/06/29 00:00:57;;;;;;;2.53;1.92;;;24.40;58.90;;;;;;7643172;22;80424;-55
2023/06/29 00:03:58;;;;;;;2.85;1.92;;;24.40;58.90;;;;;;7641134;22;80455;-53
2023/06/29 00:07:02;;;;;;;3.03;1.85;;;24.40;59.00;;;;;;7636611;22;80875;-56
2023/06/29 00:28:28;;;;;;;3.25;2.53;;;24.40;59.20;;;;;;7638587;22;81668;-58
2023/06/29 00:31:29;;;;;;;2.50;1.83;;;24.40;59.20;;;;;;7615734;22;83351;-56
2023/06/29 00:34:30;;;;;;;2.53;2.08;;;24.40;59.20;;;;;;7641117;22;80260;-58
2023/06/29 00:37:30;;;;;;;3.28;2.53;;;24.40;59.20;;;;;;7615205;22;81281;-57
2023/06/29 00:40:31;;;;;;;2.92;2.20;;;24.40;59.30;;;;;;7641201;22;80048;-58
2023/06/29 00:43:33;;;;;;;3.60;2.45;;;24.40;59.30;;;;;;7615077;22;83431;-57
2023/06/29 00:46:33;;;;;;;2.35;1.85;;;24.40;59.30;;;;;;7614425;22;87076;-58
2023/06/29 00:49:34;;;;;;;3.30;2.42;;;24.40;59.30;;;;;;7614775;22;81653;-57
2023/06/29 00:52:34;;;;;;;3.08;2.00;;;24.40;59.30;;;;;;7641858;22;80385;-57
2023/06/29 00:55:35;;;;;;;2.60;2.17;;;24.40;59.30;;;;;;7642244;22;81003;-57
2023/06/29 00:58:36;;;;;;;3.38;2.30;;;24.40;59.40;;;;;;7641100;22;80569;-57
2023/06/29 01:01:38;;;;;;;2.63;2.35;;;24.40;59.30;;;;;;7641023;22;86214;-57
2023/06/29 01:04:40;;;;;;;4.93;2.40;;;24.40;59.40;;;;;;7641291;22;80504;-58
2023/06/29 01:07:41;;;;;;;4.13;2.65;;;24.40;59.50;;;;;;7641406;22;80480;-58
2023/06/29 01:10:41;;;;;;;4.63;2.63;;;24.40;59.50;;;;;;7641103;22;80412;-57
2023/06/29 01:13:42;;;;;;;3.70;3.10;;;24.40;59.50;;;;;;7641715;22;80723;-61
2023/06/29 01:16:43;;;;;;;2.78;2.33;;;24.40;59.50;;;;;;7614099;22;83012;-62
2023/06/29 01:19:43;;;;;;;6.00;2.67;;;24.40;59.50;;;;;;7642183;22;80251;-61
2023/06/29 01:22:44;;;;;;;5.10;2.65;;;24.40;59.50;;;;;;7616632;22;82112;-61
2023/06/29 01:25:45;;;;;;;3.97;2.85;;;24.40;59.50;;;;;;7642722;22;80307;-61
2023/06/29 01:28:48;;;;;;;4.28;2.90;;;24.40;59.60;;;;;;7643786;22;81251;-61
2023/06/29 01:31:49;;;;;;;4.13;2.85;;;24.40;59.70;;;;;;7616120;22;81624;-61
2023/06/29 01:34:50;;;;;;;4.15;2.60;;;24.40;59.60;;;;;;7616340;22;82021;-61
2023/06/29 01:37:50;;;;;;;7.03;2.83;;;24.40;59.70;;;;;;7642041;22;80873;-62
2023/06/29 01:40:50;;;;;;;3.53;2.70;;;24.40;59.80;;;;;;7643109;22;81234;-62
2023/06/29 01:43:51;;;;;;;6.63;2.88;;;24.40;59.80;;;;;;7642929;22;80365;-61
2023/06/29 01:46:52;;;;;;;4.88;3.08;;;24.40;59.80;;;;;;7643659;22;80273;-60
2023/06/29 01:49:54;;;;;;;4.60;3.10;;;24.40;59.70;;;;;;7615777;22;80518;-61
2023/06/29 01:52:54;;;;;;;4.22;3.00;;;24.40;59.80;;;;;;7642815;22;80715;-61
2023/06/29 01:55:55;;;;;;;3.17;2.83;;;24.40;59.90;;;;;;7641995;22;80256;-61
2023/06/29 01:58:55;;;;;;;3.10;2.80;;;24.40;60.00;;;;;;7616835;22;82842;-61
2023/06/29 02:01:56;;;;;;;4.18;3.03;;;24.40;60.00;;;;;;7615680;22;83272;-61
2023/06/29 02:04:56;;;;;;;4.28;3.15;;;24.40;60.00;;;;;;7615921;22;83382;-60
2023/06/29 02:07:57;;;;;;;5.80;3.00;;;24.40;60.00;;;;;;7616476;22;81702;-60
2023/06/29 02:10:57;;;;;;;5.32;2.67;;;24.40;60.10;;;;;;7616258;22;83926;-60
2023/06/29 02:13:58;;;;;;;4.47;2.95;;;24.40;60.00;;;;;;7615086;22;81309;-61
2023/06/29 02:16:58;;;;;;;5.30;3.10;;;24.40;60.10;;;;;;7617076;22;82176;-61
2023/06/29 02:19:59;;;;;;;4.45;3.20;;;24.40;60.00;;;;;;7615291;22;82930;-61
2023/06/29 02:22:59;;;;;;;3.53;2.83;;;24.40;60.00;;;;;;7643107;22;80499;-60
2023/06/29 02:26:00;;;;;;;6.53;3.55;;;24.40;60.10;;;;;;7642298;22;80402;-53
2023/06/29 02:29:00;;;;;;;5.63;3.50;;;24.40;60.10;;;;;;7642730;22;81414;-56
2023/06/29 02:32:01;;;;;;;5.18;3.35;;;24.40;60.10;;;;;;7642254;22;80649;-56
2023/06/29 02:35:01;;;;;;;3.17;2.85;;;24.40;60.10;;;;;;7615345;22;83208;-56
2023/06/29 02:38:02;;;;;;;4.13;3.08;;;24.40;60.20;;;;;;7615461;22;83734;-57
2023/06/29 02:41:03;;;;;;;7.53;3.65;;;24.40;60.20;;;;;;7614873;22;87543;-57
2023/06/29 02:44:04;;;;;;;7.28;3.60;;;24.40;60.10;;;;;;7641593;22;81423;-58
2023/06/29 02:47:04;;;;;;;4.00;3.60;;;24.40;60.30;;;;;;7615323;22;81648;-57
2023/06/29 02:50:06;;;;;;;3.75;3.20;;;24.40;60.20;;;;;;7643411;22;81878;-58
2023/06/29 02:53:16;;;;;;;5.65;3.80;;;24.40;60.30;;;;;;7615991;22;83121;-57
2023/06/29 02:56:17;;;;;;;5.80;3.90;;;24.40;60.30;;;;;;7615193;22;83512;-58
2023/06/29 02:59:17;;;;;;;6.03;3.25;;;24.40;60.30;;;;;;7641659;22;80743;-57
2023/06/29 03:02:18;;;;;;;5.43;3.33;;;24.40;60.30;;;;;;7615070;22;83197;-61
2023/06/29 03:05:18;;;;;;;5.70;3.17;;;24.40;60.60;;;;;;7641818;22;80954;-61
2023/06/29 03:08:19;;;;;;;4.68;3.33;;;24.40;60.30;;;;;;7642262;22;80961;-61
2023/06/29 03:11:19;;;;;;;6.05;3.45;;;24.40;60.30;;;;;;7615356;22;83136;-60
2023/06/29 03:14:21;;;;;;;5.18;3.65;;;24.40;60.40;;;;;;7642004;22;80422;-60
2023/06/29 03:17:24;;;;;;;4.55;3.50;;;24.40;60.40;;;;;;7642091;22;80698;-60
2023/06/29 03:20:25;;;;;;;5.38;3.60;;;24.40;60.30;;;;;;7643190;22;80525;-57
2023/06/29 03:23:25;;;;;;;5.57;3.55;;;24.40;61.00;;;;;;7642814;22;80399;-56
2023/06/29 04:11:21;;;;;;;10.45;3.97;;;24.40;62.00;;;;;;7638956;22;80876;-64
2023/06/29 04:14:22;;;;;;;6.78;4.25;;;24.40;62.00;;;;;;7638315;22;80821;-63
2023/06/29 04:17:23;;;;;;;8.05;4.00;;;24.40;62.10;;;;;;7637702;22;81050;-62
2023/06/29 04:20:23;;;;;;;7.05;4.55;;;24.40;62.30;;;;;;7616029;22;81948;-62
2023/06/29 04:23:24;;;;;;;8.80;4.43;;;24.40;62.50;;;;;;7637503;22;80810;-63
2023/06/29 04:26:27;;;;;;;6.97;4.20;;;24.40;62.60;;;;;;7640716;22;80410;-60
2023/06/29 04:29:28;;;;;;;9.55;4.10;;;24.40;63.00;;;;;;7641380;22;80523;-60
2023/06/29 04:32:28;;;;;;;6.53;4.55;;;24.50;62.80;;;;;;7643376;22;82350;-61
2023/06/29 04:35:29;;;;;;;5.90;4.45;;;24.40;63.10;;;;;;7639648;22;80351;-60
2023/06/29 04:38:31;;;;;;;6.22;4.65;;;24.50;62.80;;;;;;7639021;22;81612;-62
2023/06/29 04:41:32;;;;;;;12.05;5.18;;;24.50;62.90;;;;;;7637788;22;80880;-63
2023/06/29 04:44:33;;;;;;;10.70;5.80;;;24.50;63.00;;;;;;7636848;22;80937;-65
2023/06/29 04:47:33;;;;;;;18.27;6.03;;;24.50;62.90;;;;;;7622759;22;80711;-63
2023/06/29 04:50:35;;;;;;;28.77;4.78;;;24.50;62.70;;;;;;7634326;22;80693;-66
2023/06/29 04:53:36;;;;;;;9.88;5.65;;;24.50;62.70;;;;;;7636524;22;81181;-64
2023/06/29 04:56:37;;;;;;;13.95;5.32;;;24.50;62.50;;;;;;7639975;22;79930;-64
2023/06/29 04:59:37;;;;;;;6.18;4.95;;;24.50;62.40;;;;;;7640181;22;80590;-63
2023/06/29 05:02:38;;;;;;;9.10;5.75;;;24.50;62.40;;;;;;7641746;22;80300;-64
2023/06/29 05:05:38;;;;;;;7.85;5.45;;;24.50;62.40;;;;;;7636289;22;81033;-65
2023/06/29 05:08:39;;;;;;;10.95;5.50;;;24.60;62.50;;;;;;7640745;22;80273;-66
2023/06/29 05:11:39;;;;;;;11.25;5.25;;;24.60;62.20;;;;;;7636434;22;81916;-63
2023/06/29 05:14:40;;;;;;;11.48;5.97;;;24.60;62.50;;;;;;7640379;22;80440;-64
2023/06/29 05:17:40;;;;;;;16.95;6.38;;;24.50;62.40;;;;;;7639436;22;80774;-66
2023/06/29 05:20:41;;;;;;;7.32;5.82;;;24.50;62.30;;;;;;7641776;22;80411;-65
2023/06/29 05:23:41;;;;;;;9.35;6.75;;;24.50;62.50;;;;;;7640742;22;81734;-65
2023/06/29 05:26:42;;;;;;;12.23;7.25;;;24.50;62.40;;;;;;7638992;22;80660;-63
2023/06/29 05:29:42;;;;;;;9.40;6.82;;;24.50;63.00;;;;;;7638296;22;81135;-57
2023/06/29 05:32:43;;;;;;;10.77;6.13;;;24.50;62.30;;;;;;7637892;22;80991;-51
2023/06/29 05:35:44;;;;;;;11.00;7.20;;;24.50;62.30;;;;;;7635890;22;84909;-53
2023/06/29 05:38:44;;;;;;;12.05;6.45;;;24.50;62.40;;;;;;7639266;22;80747;-56
2023/06/29 05:41:45;;;;;;;9.95;7.30;;;24.50;62.20;;;;;;7634990;22;80280;-54
2023/06/29 05:44:45;;;;;;;11.43;6.45;;;24.50;62.30;;;;;;7637509;22;80587;-54
2023/06/29 05:47:46;;;;;;;13.50;6.07;;;24.50;62.20;;;;;;7639470;22;80417;-51
2023/06/29 05:50:46;;;;;;;13.20;6.78;;;24.60;62.20;;;;;;7640364;22;80326;-54
2023/06/29 05:53:47;;;;;;;11.05;6.18;;;24.60;62.20;;;;;;7640229;22;80803;-52
2023/06/29 05:56:48;;;;;;;8.55;5.95;;;24.60;62.20;;;;;;7637188;22;80527;-52
2023/06/29 05:59:49;;;;;;;9.43;6.32;;;24.50;62.50;;;;;;7636553;22;80795;-53
2023/06/29 06:02:49;;;;;;;11.32;6.05;;;24.50;62.50;;;;;;7640498;22;81325;-54
2023/06/29 06:05:50;;;;;;;8.43;5.97;;;24.50;62.30;;;;;;7642299;22;80287;-53
2023/06/29 06:08:51;;;;;;;9.10;5.95;;;24.60;62.30;;;;;;7643124;22;80196;-63
2023/06/29 06:11:51;;;;;;;9.23;6.30;;;24.60;62.30;;;;;;7614601;22;81876;-62
2023/06/29 06:14:52;;;;;;;9.13;6.43;;;24.60;62.10;;;;;;7641940;22;80424;-62
2023/06/29 06:17:52;;;;;;;10.85;6.60;;;24.60;62.20;;;;;;7643174;22;80512;-63
2023/06/29 06:20:53;;;;;;;11.30;6.13;;;24.60;62.10;;;;;;7641287;22;81061;-64
2023/06/29 06:23:53;;;;;;;12.65;6.78;;;24.60;62.10;;;;;;7641791;22;80130;-55
2023/06/29 06:26:54;;;;;;;10.60;6.90;;;24.70;62.60;;;;;;7640015;22;80711;-60
2023/06/29 06:29:54;;;;;;;10.82;6.40;;;24.70;62.50;;;;;;7642225;22;80774;-60
2023/06/29 06:32:55;;;;;;;9.02;6.65;;;24.70;62.60;;;;;;7640049;22;80966;-61
2023/06/29 06:35:55;;;;;;;10.13;6.30;;;24.70;62.60;;;;;;7641837;22;81015;-62
2023/06/29 06:38:57;;;;;;;10.18;6.22;;;24.70;62.40;;;;;;7640482;22;81098;-61
2023/06/29 06:41:58;;;;;;;10.65;6.70;;;24.70;62.30;;;;;;7641266;22;80876;-61
2023/06/29 06:45:00;;;;;;;10.80;6.22;;;24.70;62.20;;;;;;7641088;22;80175;-65
2023/06/29 06:48:01;;;;;;;11.35;6.50;;;24.80;62.20;;;;;;7641935;22;80625;-63
2023/06/29 06:51:01;;;;;;;14.50;6.47;;;24.80;62.30;;;;;;7638601;22;81073;-64
2023/06/29 06:54:02;;;;;;;9.98;6.55;;;24.80;62.30;;;;;;7642282;22;80131;-64
2023/06/29 06:57:02;;;;;;;9.25;6.57;;;24.80;62.20;;;;;;7641268;22;81592;-64
2023/06/29 07:00:03;;;;;;;10.00;6.82;;;24.80;62.20;;;;;;7642065;22;80568;-64
2023/06/29 07:03:03;;;;;;;8.32;6.30;;;24.80;62.20;;;;;;7641083;22;80436;-62
2023/06/29 07:06:04;;;;;;;10.65;6.60;;;24.80;62.40;;;;;;7641606;22;80952;-62
2023/06/29 07:09:07;;;;;;;11.65;6.38;;;24.80;62.50;;;;;;7642954;22;81319;-63
2023/06/29 07:12:09;;;;;;;8.10;6.63;;;24.90;62.60;;;;;;7643201;22;83335;-62
2023/06/29 07:15:09;;;;;;;9.40;6.40;;;24.80;62.50;;;;;;7642891;22;80786;-61
2023/06/29 07:18:10;;;;;;;7.50;6.47;;;24.90;62.60;;;;;;7640996;22;80633;-60
2023/06/29 07:21:10;;;;;;;12.85;6.35;;;24.80;62.70;;;;;;7642861;22;80372;-57
2023/06/29 07:24:11;;;;;;;14.38;6.95;;;24.80;62.60;;;;;;7642428;22;80198;-57
2023/06/29 07:27:11;;;;;;;8.88;6.10;;;24.80;62.90;;;;;;7642584;22;81014;-58
2023/06/29 07:30:12;;;;;;;8.80;6.68;;;24.80;63.10;;;;;;7641946;22;81055;-58
2023/06/29 07:33:13;;;;;;;10.48;6.53;;;24.80;63.20;;;;;;7642750;22;80357;-57
2023/06/29 07:36:13;;;;;;;10.25;6.93;;;24.80;63.00;;;;;;7639915;22;80430;-57
2023/06/29 07:39:14;;;;;;;18.17;7.57;;;24.80;63.70;;;;;;7643304;22;81453;-52
2023/06/29 07:42:14;;;;;;;7.05;6.00;;;24.90;62.90;;;;;;7643342;22;81043;-48
2023/06/29 07:45:15;;;;;;;10.98;6.53;;;24.90;63.00;;;;;;7643654;22;82355;-52
2023/06/29 07:48:16;;;;;;;64.07;32.90;;;24.90;62.90;;;;;;7641809;22;80484;-54
2023/06/29 07:51:16;;;;;;;74.57;41.78;;;24.90;62.90;;;;;;7638568;22;83491;-56
2023/06/29 07:54:18;;;;;;;175.73;99.60;;;24.90;62.90;;;;;;7638001;22;83174;-55
2023/06/29 07:57:18;;;;;;;221.70;128.23;;;25.00;62.90;;;;;;7639343;22;83526;-66
2023/06/29 08:00:21;;;;;;;489.00;268.95;;;25.00;62.80;;;;;;7635012;22;85877;-66
2023/06/29 08:03:22;;;;;;;373.80;205.32;;;24.90;62.60;;;;;;7635182;22;85759;-67
2023/06/29 08:06:22;;;;;;;269.60;142.40;;;25.00;62.50;;;;;;7635299;22;86293;-64
2023/06/29 08:09:23;;;;;;;345.48;180.40;;;25.00;62.50;;;;;;7608028;22;88541;-62
2023/06/29 08:12:23;;;;;;;262.75;143.90;;;25.00;62.30;;;;;;7634676;22;87752;-64
2023/06/29 08:15:24;;;;;;;193.52;105.90;;;25.00;62.30;;;;;;7634579;22;85488;-67
2023/06/29 08:18:24;;;;;;;171.98;92.90;;;25.00;62.20;;;;;;7633504;22;85741;-65
2023/06/29 08:21:25;;;;;;;159.98;90.90;;;25.00;62.20;;;;;;7637728;22;84399;-66
2023/06/29 08:24:25;;;;;;;160.00;88.63;;;25.00;62.30;;;;;;7637322;22;83464;-65
2023/06/29 08:27:26;;;;;;;134.40;73.63;;;25.10;62.40;;;;;;7637164;22;83424;-67
2023/06/29 08:30:26;;;;;;;123.32;68.03;;;25.00;62.40;;;;;;7636025;22;82915;-66
2023/06/29 08:33:27;;;;;;;118.22;65.85;;;25.10;62.30;;;;;;7637315;22;83110;-68
2023/06/29 08:36:29;;;;;;;113.28;63.05;;;25.00;62.20;;;;;;7637500;22;83488;-66
2023/06/29 08:39:30;;;;;;;105.13;58.75;;;25.10;62.10;;;;;;7638460;22;83383;-64
2023/06/29 08:42:31;;;;;;;103.80;56.67;;;25.00;61.90;;;;;;7636198;22;82767;-65
2023/06/29 08:45:31;;;;;;;96.38;55.13;;;25.00;61.90;;;;;;7611521;22;84549;-65
2023/06/29 08:48:32;;;;;;;89.28;49.28;;;25.10;62.00;;;;;;7636447;22;82789;-71
2023/06/29 08:51:34;;;;;;;67.32;39.08;;;25.10;61.90;;;;;;7637589;22;84436;-71
2023/06/29 08:54:35;;;;;;;52.63;31.10;;;25.00;61.80;;;;;;7637886;22;83437;-74
2023/06/29 08:57:35;;;;;;;28.50;17.50;;;24.90;61.80;;;;;;7636864;22;82976;-78
2023/06/29 09:00:37;;;;;;;29.63;14.85;;;24.40;63.40;;;;;;7637120;22;83146;-73
2023/06/29 09:03:38;;;;;;;19.17;13.00;;;24.20;64.00;;;;;;7638787;22;83077;-73
2023/06/29 09:06:40;;;;;;;17.20;12.30;;;24.20;63.70;;;;;;7637913;22;83094;-72
2023/06/29 09:09:41;;;;;;;17.05;11.93;;;24.10;63.10;;;;;;7637729;22;82921;-62
2023/06/29 09:12:41;;;;;;;21.83;11.35;;;24.10;63.60;;;;;;7638833;22;83516;-61
2023/06/29 09:15:42;;;;;;;19.42;12.32;;;24.10;63.20;;;;;;7635830;22;83097;-59
2023/06/29 09:18:42;;;;;;;18.85;13.13;;;24.30;63.10;;;;;;7638152;22;84368;-59
2023/06/29 09:21:43;;;;;;;21.35;12.68;;;24.50;62.80;;;;;;7636445;22;82912;-59
2023/06/29 09:24:44;;;;;;;15.60;11.30;;;24.50;62.40;;;;;;7638306;22;83683;-59
2023/06/29 09:27:44;;;;;;;18.13;11.35;;;24.50;62.70;;;;;;7637515;22;83475;-62
2023/06/29 09:30:45;;;;;;;15.10;9.93;;;24.60;62.30;;;;;;7637698;22;82851;-58
2023/06/29 09:33:45;;;;;;;15.93;10.10;;;24.70;62.20;;;;;;7640792;22;83286;-60
2023/06/29 09:36:46;;;;;;;12.98;9.10;;;24.70;62.00;;;;;;7633675;22;82829;-60
2023/06/29 09:39:46;;;;;;;12.38;8.60;;;24.70;61.10;;;;;;7638115;22;82828;-60
2023/06/29 09:42:47;;;;;;;12.68;8.38;;;24.80;60.70;;;;;;7641929;22;80103;-59
2023/06/29 09:45:47;;;;;;;11.35;8.13;;;24.90;60.70;;;;;;7642515;22;81242;-58
2023/06/29 09:48:48;;;;;;;12.70;8.27;;;24.90;61.20;;;;;;7637333;22;80117;-59
2023/06/29 09:51:49;;;;;;;15.45;9.40;;;24.90;60.80;;;;;;7642471;22;80697;-60
2023/06/29 09:54:49;;;;;;;10.52;7.57;;;25.00;60.60;;;;;;7641633;22;80814;-59
2023/06/29 09:57:50;;;;;;;10.02;7.63;;;25.00;60.10;;;;;;7640553;22;80530;-59
2023/06/29 10:00:51;;;;;;;10.02;7.85;;;25.10;60.10;;;;;;7642210;22;80679;-58
2023/06/29 10:03:52;;;;;;;11.07;7.75;;;25.00;60.30;;;;;;7642248;22;80606;-62
2023/06/29 10:06:52;;;;;;;13.00;8.13;;;25.00;60.40;;;;;;7641311;22;80522;-58
2023/06/29 10:09:53;;;;;;;10.55;9.23;;;24.90;60.80;;;;;;7639623;22;81286;-57
2023/06/29 10:12:54;;;;;;;14.63;9.05;;;24.80;61.20;;;;;;7640415;22;87464;-58
2023/06/29 10:15:54;;;;;;;14.57;8.95;;;24.80;61.40;;;;;;7642256;22;80538;-58
2023/06/29 10:18:55;;;;;;;11.32;8.27;;;24.90;61.40;;;;;;7639285;22;80356;-58
2023/06/29 10:21:56;;;;;;;11.75;8.52;;;24.90;61.90;;;;;;7643433;22;80205;-58
2023/06/29 10:24:57;;;;;;;11.20;8.68;;;24.90;62.20;;;;;;7642414;22;80297;-68
2023/06/29 10:27:57;;;;;;;11.88;8.25;;;25.00;61.80;;;;;;7638800;22;80938;-73
2023/06/29 10:30:58;;;;;;;10.32;7.78;;;24.90;62.00;;;;;;7642223;22;80202;-72
2023/06/29 10:33:58;;;;;;;13.40;8.55;;;24.90;62.20;;;;;;7643109;22;80427;-72
2023/06/29 10:36:59;;;;;;;10.05;8.18;;;25.00;61.70;;;;;;7638846;22;80895;-75
2023/06/29 10:40:00;;;;;;;9.07;7.93;;;25.00;61.10;;;;;;7643348;22;80417;-69
2023/06/29 10:43:00;;;;;;;13.38;7.57;;;25.10;60.60;;;;;;7642824;22;80203;-59
2023/06/29 10:46:01;;;;;;;10.30;7.95;;;25.10;60.90;;;;;;7643478;22;80307;-58
2023/06/29 10:49:02;;;;;;;11.50;8.05;;;25.20;60.60;;;;;;7640725;22;80792;-58
2023/06/29 10:52:03;;;;;;;14.98;8.32;;;25.20;60.40;;;;;;7642660;22;80366;-58
2023/06/29 10:55:03;;;;;;;13.95;8.15;;;25.20;60.40;;;;;;7642716;22;80426;-57
2023/06/29 10:58:04;;;;;;;11.57;8.10;;;25.20;60.00;;;;;;7641898;22;80381;-58
2023/06/29 11:01:04;;;;;;;10.88;7.82;;;25.20;59.80;;;;;;7643350;22;80833;-63
2023/06/29 11:04:05;;;;;;;11.00;8.57;;;25.20;59.80;;;;;;7641688;22;80389;-62
2023/06/29 11:07:07;;;;;;;11.57;8.18;;;25.10;58.80;;;;;;7643299;22;80592;-63
2023/06/29 11:10:07;;;;;;;10.20;7.28;;;25.10;59.20;;;;;;7642294;22;80368;-63
2023/06/29 11:13:08;;;;;;;12.00;8.10;;;25.20;59.10;;;;;;7642210;22;80493;-62
2023/06/29 11:16:08;;;;;;;13.40;8.70;;;25.30;58.90;;;;;;7641644;22;80247;-63
2023/06/29 11:19:10;;;;;;;10.82;8.10;;;25.30;58.70;;;;;;7643163;22;80133;-58
2023/06/29 11:22:11;;;;;;;10.43;7.22;;;25.30;59.00;;;;;;7642496;22;81488;-59
2023/06/29 11:25:12;;;;;;;12.73;7.40;;;25.30;58.80;;;;;;7640137;22;80819;-60
2023/06/29 11:28:12;;;;;;;13.80;7.97;;;25.40;58.70;;;;;;7641507;22;80583;-59
2023/06/29 11:31:14;;;;;;;10.27;7.55;;;25.40;58.60;;;;;;7642146;22;81028;-59
2023/06/29 11:34:14;;;;;;;9.57;7.55;;;25.40;58.80;;;;;;7640580;22;81277;-58
2023/06/29 11:37:15;;;;;;;10.68;7.82;;;25.40;58.70;;;;;;7640380;22;81010;-58
2023/06/29 11:40:15;;;;;;;12.50;8.07;;;25.40;58.60;;;;;;7641599;22;81175;-58
2023/06/29 11:43:16;;;;;;;8.60;7.45;;;25.50;58.40;;;;;;7641109;22;80082;-58
2023/06/29 11:46:17;;;;;;;11.32;7.55;;;25.40;58.20;;;;;;7641499;22;80779;-57
2023/06/29 11:49:18;;;;;;;8.52;7.18;;;25.40;57.80;;;;;;7641368;22;80783;-58
2023/06/29 11:52:19;;;;;;;8.60;7.07;;;25.40;57.30;;;;;;7643437;22;80318;-57
2023/06/29 11:55:19;;;;;;;9.10;7.78;;;25.40;57.00;;;;;;7644135;22;80810;-58
2023/06/29 11:58:20;;;;;;;7.82;6.57;;;25.40;57.50;;;;;;7642710;22;80592;-56
2023/06/29 12:01:20;;;;;;;7.72;6.32;;;25.40;57.60;;;;;;7642643;22;80743;-57
2023/06/29 12:04:21;;;;;;;9.23;7.60;;;25.40;57.50;;;;;;7642014;22;80826;-58
2023/06/29 12:07:22;;;;;;;8.65;7.28;;;25.40;57.70;;;;;;7641203;22;80600;-58
2023/06/29 12:10:22;;;;;;;12.95;6.72;;;25.50;57.80;;;;;;7641528;22;82100;-58
2023/06/29 12:13:23;;;;;;;8.18;6.55;;;25.40;57.80;;;;;;7641312;22;81531;-77
2023/06/29 12:16:24;;;;;;;8.60;6.88;;;25.40;57.30;;;;;;7642800;22;80877;-75
2023/06/29 12:19:24;;;;;;;8.68;6.70;;;25.40;58.50;;;;;;7642046;22;80755;-72
2023/06/29 12:22:25;;;;;;;8.93;7.05;;;25.40;57.80;;;;;;7643545;22;80886;-78
2023/06/29 12:25:25;;;;;;;7.78;6.63;;;25.50;57.30;;;;;;7643425;22;80225;-77
2023/06/29 12:28:26;;;;;;;8.77;7.00;;;25.50;57.30;;;;;;7643279;22;80707;-78
2023/06/29 12:31:26;;;;;;;10.82;6.97;;;25.50;57.40;;;;;;7615884;22;82205;-76
2023/06/29 12:34:31;;;;;;;13.05;7.57;;;25.50;57.40;;;;;;7643306;22;81217;-77
2023/06/29 12:37:31;;;;;;;9.23;6.80;;;25.50;57.20;;;;;;7640929;22;80462;-73
2023/06/29 12:40:32;;;;;;;9.90;7.15;;;25.60;57.30;;;;;;7643660;22;80957;-68
2023/06/29 12:43:32;;;;;;;8.95;7.10;;;25.60;57.00;;;;;;7642022;22;80230;-71
2023/06/29 12:46:33;;;;;;;10.25;7.35;;;25.60;57.10;;;;;;7642876;22;80205;-73
2023/06/29 12:49:33;;;;;;;11.00;7.30;;;25.60;56.70;;;;;;7642147;22;81367;-74
2023/06/29 12:52:34;;;;;;;8.20;6.95;;;25.60;56.50;;;;;;7643051;22;80660;-62
2023/06/29 12:55:34;;;;;;;9.57;7.22;;;25.60;56.50;;;;;;7642665;22;80869;-62
2023/06/29 12:58:35;;;;;;;8.27;6.72;;;25.60;56.60;;;;;;7642276;22;80247;-61
2023/06/29 13:01:35;;;;;;;9.32;7.18;;;25.60;56.50;;;;;;7641290;22;80685;-63
2023/06/29 13:04:38;;;;;;;8.45;7.05;;;25.70;56.50;;;;;;7640274;22;80983;-62
2023/06/29 13:07:38;;;;;;;7.57;6.70;;;25.50;56.10;;;;;;7640905;22;81118;-67
2023/06/29 13:10:39;;;;;;;10.40;7.07;;;25.60;56.20;;;;;;7642585;22;80497;-62
2023/06/29 13:13:39;;;;;;;6.88;6.18;;;25.60;56.40;;;;;;7642040;22;80890;-60
2023/06/29 13:16:40;;;;;;;8.95;6.90;;;25.60;56.10;;;;;;7645130;22;80320;-63
2023/06/29 13:19:42;;;;;;;8.52;6.65;;;25.60;55.60;;;;;;7643914;22;80261;-63
2023/06/29 13:22:42;;;;;;;8.63;6.00;;;25.60;55.90;;;;;;7644309;22;80524;-63
2023/06/29 13:25:43;;;;;;;9.65;6.82;;;25.70;55.90;;;;;;7643929;22;81016;-63
2023/06/29 13:28:44;;;;;;;7.45;6.03;;;25.70;55.90;;;;;;7643827;22;81499;-62
2023/06/29 13:31:44;;;;;;;12.77;6.70;;;25.70;55.60;;;;;;7642328;22;81362;-62
2023/06/29 13:34:45;;;;;;;8.45;5.45;;;25.60;55.30;;;;;;7642745;22;80373;-62
2023/06/29 13:37:45;;;;;;;7.38;5.57;;;25.60;55.00;;;;;;7641792;22;80230;-62
2023/06/29 13:40:46;;;;;;;7.30;4.90;;;25.60;54.80;;;;;;7641965;22;80308;-62
2023/06/29 13:43:46;;;;;;;6.72;5.20;;;25.60;55.00;;;;;;7643422;22;80624;-61
2023/06/29 13:46:47;;;;;;;8.50;5.35;;;25.50;54.80;;;;;;7642493;22;80546;-61
2023/06/29 13:49:48;;;;;;;8.73;5.28;;;25.50;55.40;;;;;;7642442;22;80179;-61
2023/06/29 13:52:48;;;;;;;9.20;5.28;;;25.60;55.20;;;;;;7643200;22;81386;-61
2023/06/29 13:55:49;;;;;;;7.53;5.45;;;25.60;55.70;;;;;;7613759;22;81114;-61
2023/06/29 13:58:49;;;;;;;8.63;5.28;;;25.70;55.40;;;;;;7640893;22;80250;-59
2023/06/29 14:01:50;;;;;;;7.88;5.13;;;25.60;55.90;;;;;;7632333;22;81843;-60
2023/06/29 14:04:50;;;;;;;7.53;5.03;;;25.50;54.60;;;;;;7298745;22;83014;-59
2023/06/29 14:07:51;;;;;;;9.05;4.97;;;25.60;55.10;;;;;;6781270;22;83394;-58
2023/06/29 14:10:52;;;;;;;8.52;4.80;;;25.60;55.20;;;;;;6826688;22;83205;-57
2023/06/29 14:13:52;;;;;;;7.53;5.55;;;25.50;55.10;;;;;;6831215;22;83127;-57
2023/06/29 14:16:53;;;;;;;9.82;4.95;;;25.70;55.20;;;;;;6845752;22;83234;-58
2023/06/29 14:19:55;;;;;;;8.02;4.22;;;25.70;54.30;;;;;;7601861;22;82905;-60
2023/06/29 14:22:55;;;;;;;6.00;4.32;;;25.70;55.10;;;;;;7641650;22;80321;-58
2023/06/29 14:25:56;;;;;;;12.15;5.03;;;25.60;54.90;;;;;;7639563;22;80166;-58
2023/06/29 14:28:56;;;;;;;6.40;4.38;;;25.70;55.30;;;;;;7640356;22;80340;-59
2023/06/29 14:31:57;;;;;;;9.45;4.93;;;25.70;55.20;;;;;;7640977;22;80686;-59
2023/06/29 14:34:57;;;;;;;8.00;4.43;;;25.70;56.50;;;;;;7642123;22;80580;-59
2023/06/29 14:37:58;;;;;;;7.57;4.65;;;25.70;56.80;;;;;;7638503;22;81104;-62
2023/06/29 14:40:59;;;;;;;9.88;5.40;;;25.70;57.00;;;;;;7641516;22;80592;-62
2023/06/29 14:43:59;;;;;;;7.47;4.70;;;25.70;57.50;;;;;;7642615;22;80379;-64
2023/06/29 14:47:00;;;;;;;10.05;4.93;;;25.70;57.70;;;;;;7641938;22;80730;-66
2023/06/29 14:50:01;;;;;;;5.45;4.63;;;25.80;56.80;;;;;;7615192;22;81687;-66
2023/06/29 14:53:01;;;;;;;7.40;4.57;;;25.70;56.50;;;;;;7643355;22;80916;-66
2023/06/29 14:56:02;;;;;;;13.45;5.00;;;25.60;55.70;;;;;;7642290;22;80293;-67
2023/06/29 14:59:02;;;;;;;8.25;4.95;;;25.60;56.80;;;;;;7642319;22;80693;-61
2023/06/29 15:02:03;;;;;;;11.85;4.65;;;25.70;56.20;;;;;;7638640;22;81493;-60
2023/06/29 15:05:04;;;;;;;13.10;5.35;;;25.50;56.80;;;;;;7638753;22;80238;-58
2023/06/29 15:08:04;;;;;;;7.55;5.10;;;25.60;56.20;;;;;;7640529;22;80659;-58
2023/06/29 15:11:05;;;;;;;8.32;5.38;;;25.60;56.30;;;;;;7641132;22;79947;-59
2023/06/29 15:14:05;;;;;;;12.55;7.55;;;25.60;56.80;;;;;;7640921;22;80539;-63
2023/06/29 15:17:06;;;;;;;69.68;37.40;;;25.60;56.60;;;;;;7641968;22;80291;-60
2023/06/29 15:20:06;;;;;;;91.00;51.00;;;25.60;57.00;;;;;;7636427;22;83091;-60
2023/06/29 15:23:07;;;;;;;129.52;69.97;;;25.50;56.00;;;;;;7610256;22;85490;-59
2023/06/29 15:26:07;;;;;;;130.50;72.55;;;25.50;56.90;;;;;;7635104;22;83252;-59
2023/06/29 15:29:08;;;;;;;91.78;50.60;;;25.50;56.80;;;;;;7635433;22;83539;-59
2023/06/29 15:32:08;;;;;;;81.90;46.03;;;25.60;56.50;;;;;;7634974;22;84142;-59
2023/06/29 15:35:10;;;;;;;44.67;25.77;;;25.60;56.50;;;;;;7635340;22;83039;-59
2023/06/29 15:38:10;;;;;;;47.78;25.23;;;25.50;56.20;;;;;;7633583;22;83350;-60
2023/06/29 15:41:11;;;;;;;48.35;27.15;;;25.50;56.40;;;;;;7637773;22;83038;-62
2023/06/29 15:44:11;;;;;;;30.90;19.15;;;25.50;56.70;;;;;;7638824;22;83170;-61
2023/06/29 15:47:12;;;;;;;26.25;17.17;;;25.40;56.70;;;;;;7611803;22;84306;-61
2023/06/29 15:50:12;;;;;;;22.83;11.93;;;25.50;56.70;;;;;;7612000;22;84142;-65
2023/06/29 15:53:13;;;;;;;20.17;12.35;;;25.40;56.70;;;;;;7639455;22;83247;-60
2023/06/29 15:56:14;;;;;;;164.85;85.15;;;25.40;57.00;;;;;;7631457;22;85119;-59
2023/06/29 15:59:14;;;;;;;285.70;149.25;;;25.30;58.00;;;;;;7639783;22;83110;-59
2023/06/29 16:02:15;;;;;;;238.23;128.68;;;25.40;58.00;;;;;;7634587;22;86027;-60
2023/06/29 16:05:15;;;;;;;302.23;155.18;;;25.30;57.90;;;;;;7633359;22;85566;-58
2023/06/29 16:08:16;;;;;;;251.43;129.85;;;25.30;58.20;;;;;;7633893;22;85301;-59
2023/06/29 16:11:16;;;;;;;115.43;61.13;;;25.30;58.00;;;;;;7629768;22;86128;-58
2023/06/29 16:14:17;;;;;;;101.95;54.65;;;25.20;57.60;;;;;;7641390;22;85412;-61
2023/06/29 16:17:17;;;;;;;84.28;47.28;;;25.30;58.10;;;;;;7639516;22;84126;-58
2023/06/29 16:20:18;;;;;;;77.50;41.75;;;25.30;58.60;;;;;;7641318;22;82957;-59
2023/06/29 16:23:18;;;;;;;47.70;26.85;;;25.30;58.60;;;;;;7639987;22;82916;-60
2023/06/29 16:26:19;;;;;;;55.05;25.67;;;25.30;58.30;;;;;;7637709;22;83533;-60
2023/06/29 16:29:19;;;;;;;35.53;21.08;;;25.30;58.60;;;;;;7641629;22;82797;-60
2023/06/29 16:32:20;;;;;;;29.00;18.35;;;25.30;58.40;;;;;;7639069;22;82806;-61